createdAt,value
2017-04-17T00:00:41.965Z,6.36
2017-04-17T00:01:42.545Z,6.44
2017-04-17T00:02:43.111Z,6.35
2017-04-17T00:03:43.676Z,6.39
2017-04-17T00:04:44.241Z,6.51
2017-04-17T00:05:44.808Z,6.39
2017-04-17T00:06:45.374Z,6.42
2017-04-17T00:07:45.941Z,6.36
2017-04-17T00:08:46.708Z,6.45
2017-04-17T00:09:47.277Z,6.49
2017-04-17T00:10:47.878Z,6.48
2017-04-17T00:11:48.446Z,6.44
2017-04-17T00:12:49.012Z,6.46
2017-04-17T00:13:49.581Z,6.45
2017-04-17T00:14:50.161Z,6.44
2017-04-17T00:15:50.741Z,6.51
2017-04-17T00:16:51.306Z,6.39
2017-04-17T00:17:51.873Z,6.31
2017-04-17T00:18:52.439Z,6.49
2017-04-17T00:19:53.004Z,6.42
2017-04-17T00:20:53.571Z,6.48
2017-04-17T00:21:54.137Z,6.52
2017-04-17T00:22:54.703Z,6.44
2017-04-17T00:23:55.270Z,6.46
2017-04-17T00:24:55.837Z,6.52
2017-04-17T00:25:56.404Z,6.46
2017-04-17T00:26:56.971Z,6.52
2017-04-17T00:27:57.541Z,6.51
2017-04-17T00:28:58.107Z,6.46
2017-04-17T00:29:58.675Z,6.49
2017-04-17T00:30:59.242Z,6.49
2017-04-17T00:31:59.822Z,6.63
2017-04-17T00:33:00.402Z,6.49
2017-04-17T00:34:01.168Z,6.52
2017-04-17T00:35:01.737Z,6.46
2017-04-17T00:36:02.304Z,6.54
2017-04-17T00:37:02.872Z,6.51
2017-04-17T00:38:03.438Z,6.52
2017-04-17T00:39:04.007Z,6.52
2017-04-17T00:40:04.574Z,6.51
2017-04-17T00:41:05.140Z,6.57
2017-04-17T00:42:05.707Z,6.51
2017-04-17T00:43:06.274Z,6.48
2017-04-17T00:44:06.854Z,6.46
2017-04-17T00:45:07.420Z,6.52
2017-04-17T00:46:07.988Z,6.51
2017-04-17T00:47:08.554Z,6.48
2017-04-17T00:48:09.124Z,6.45
2017-04-17T00:49:09.891Z,6.42
2017-04-17T00:50:10.459Z,6.44
2017-04-17T00:51:11.025Z,6.49
2017-04-17T00:52:11.605Z,6.51
2017-04-17T00:53:12.171Z,6.45
2017-04-17T00:54:12.738Z,6.46
2017-04-17T00:55:13.305Z,6.51
2017-04-17T00:56:13.870Z,6.49
2017-04-17T00:57:14.436Z,6.36
2017-04-17T00:58:14.996Z,6.48
2017-04-17T00:59:15.561Z,6.46
2017-04-17T01:00:16.128Z,6.44
2017-04-17T01:01:16.693Z,6.38
2017-04-17T01:02:17.260Z,6.36
2017-04-17T01:03:17.827Z,6.35
2017-04-17T01:04:18.605Z,6.31
2017-04-17T01:05:19.171Z,6.35
2017-04-17T01:06:19.750Z,6.51
2017-04-17T01:07:20.318Z,6.52
2017-04-17T01:08:20.886Z,6.36
2017-04-17T01:09:21.466Z,6.36
2017-04-17T01:10:22.035Z,6.36
2017-04-17T01:11:22.603Z,6.41
2017-04-17T01:12:23.170Z,6.39
2017-04-17T01:13:26.770Z,6.41
2017-04-17T01:14:27.338Z,6.38
2017-04-17T01:15:27.905Z,6.35
2017-04-17T01:16:28.472Z,6.39
2017-04-17T01:17:29.038Z,6.35
2017-04-17T01:18:29.605Z,6.31
2017-04-17T01:19:30.371Z,6.36
2017-04-17T01:20:30.940Z,6.35
2017-04-17T01:21:31.507Z,6.30
2017-04-17T01:22:32.075Z,6.33
2017-04-17T01:23:32.656Z,6.30
2017-04-17T01:24:33.222Z,6.36
2017-04-17T01:25:33.791Z,6.36
2017-04-17T01:26:34.358Z,6.33
2017-04-17T01:27:34.926Z,6.33
2017-04-17T01:28:35.508Z,6.35
2017-04-17T01:29:36.075Z,6.28
2017-04-17T01:30:36.642Z,6.30
2017-04-17T01:31:37.209Z,6.27
2017-04-17T01:32:37.776Z,6.27
2017-04-17T01:33:38.342Z,6.33
2017-04-17T01:34:39.109Z,6.33
2017-04-17T01:35:39.678Z,6.31
2017-04-17T01:36:40.248Z,6.31
2017-04-17T01:37:40.815Z,6.30
2017-04-17T01:38:41.383Z,6.27
2017-04-17T01:39:41.963Z,6.30
2017-04-17T01:40:42.531Z,6.27
2017-04-17T01:41:43.100Z,6.28
2017-04-17T01:42:43.666Z,6.22
2017-04-17T01:43:44.233Z,6.26
2017-04-17T01:44:44.801Z,6.14
2017-04-17T01:45:45.372Z,6.28
2017-04-17T01:46:45.935Z,6.26
2017-04-17T01:47:46.501Z,6.30
2017-04-17T01:48:47.069Z,6.28
2017-04-17T01:49:47.836Z,6.24
2017-04-17T01:50:48.402Z,6.28
2017-04-17T01:51:48.983Z,6.26
2017-04-17T01:52:49.552Z,6.26
2017-04-17T01:53:50.118Z,6.22
2017-04-17T01:54:50.687Z,6.26
2017-04-17T01:55:51.255Z,6.19
2017-04-17T01:56:51.821Z,6.19
2017-04-17T01:57:52.402Z,6.20
2017-04-17T01:58:52.969Z,6.24
2017-04-17T01:59:53.551Z,6.09
2017-04-17T02:00:54.118Z,6.08
2017-04-17T02:01:54.679Z,6.14
2017-04-17T02:02:55.247Z,6.20
2017-04-17T02:03:55.815Z,6.20
2017-04-17T02:04:56.585Z,6.12
2017-04-17T02:05:57.151Z,6.11
2017-04-17T02:06:57.720Z,6.11
2017-04-17T02:07:58.293Z,6.07
2017-04-17T02:08:58.857Z,6.07
2017-04-17T02:09:59.423Z,6.01
2017-04-17T02:10:59.991Z,6.12
2017-04-17T02:12:00.572Z,6.11
2017-04-17T02:13:01.190Z,6.04
2017-04-17T02:14:01.758Z,6.05
2017-04-17T02:15:02.324Z,5.99
2017-04-17T02:16:02.891Z,6.01
2017-04-17T02:17:03.457Z,6.02
2017-04-17T02:18:04.024Z,6.05
2017-04-17T02:19:04.590Z,5.99
2017-04-17T02:20:05.355Z,6.01
2017-04-17T02:21:05.922Z,5.97
2017-04-17T02:22:06.492Z,6.02
2017-04-17T02:23:07.073Z,5.97
2017-04-17T02:24:07.640Z,6.01
2017-04-17T02:25:08.208Z,5.97
2017-04-17T02:26:08.775Z,5.94
2017-04-17T02:27:09.357Z,5.98
2017-04-17T02:28:09.927Z,5.98
2017-04-17T02:29:10.493Z,5.98
2017-04-17T02:30:11.073Z,5.94
2017-04-17T02:31:11.642Z,5.90
2017-04-17T02:32:12.209Z,5.94
2017-04-17T02:33:12.788Z,5.90
2017-04-17T02:34:13.349Z,5.93
2017-04-17T02:35:14.126Z,5.90
2017-04-17T02:36:14.692Z,5.83
2017-04-17T02:37:15.258Z,5.87
2017-04-17T02:38:15.824Z,5.90
2017-04-17T02:39:16.390Z,5.87
2017-04-17T02:40:16.955Z,5.86
2017-04-17T02:41:17.522Z,5.87
2017-04-17T02:42:18.089Z,5.86
2017-04-17T02:43:18.657Z,5.84
2017-04-17T02:44:19.225Z,5.76
2017-04-17T02:45:19.792Z,5.71
2017-04-17T02:46:20.359Z,5.76
2017-04-17T02:47:20.926Z,5.80
2017-04-17T02:48:21.507Z,5.83
2017-04-17T02:49:22.078Z,5.79
2017-04-17T02:50:22.842Z,5.72
2017-04-17T02:51:23.408Z,5.79
2017-04-17T02:52:23.974Z,5.71
2017-04-17T02:53:24.540Z,5.69
2017-04-17T02:54:25.107Z,5.65
2017-04-17T02:55:25.676Z,5.66
2017-04-17T02:56:26.245Z,5.61
2017-04-17T02:57:26.813Z,5.65
2017-04-17T02:58:27.380Z,5.66
2017-04-17T02:59:27.947Z,5.56
2017-04-17T03:00:28.528Z,5.64
2017-04-17T03:01:29.110Z,5.62
2017-04-17T03:02:29.678Z,5.66
2017-04-17T03:03:30.247Z,5.54
2017-04-17T03:04:30.813Z,5.61
2017-04-17T03:05:31.582Z,5.56
2017-04-17T03:06:32.149Z,5.66
2017-04-17T03:07:32.717Z,5.61
2017-04-17T03:08:33.285Z,5.64
2017-04-17T03:09:33.853Z,5.64
2017-04-17T03:10:34.419Z,5.53
2017-04-17T03:11:34.987Z,5.64
2017-04-17T03:12:35.553Z,5.57
2017-04-17T03:13:36.114Z,5.64
2017-04-17T03:14:36.680Z,5.56
2017-04-17T03:15:37.247Z,5.56
2017-04-17T03:16:37.814Z,5.56
2017-04-17T03:17:38.395Z,5.61
2017-04-17T03:18:38.975Z,5.57
2017-04-17T03:19:39.544Z,5.64
2017-04-17T03:20:40.312Z,5.51
2017-04-17T03:21:40.879Z,5.51
2017-04-17T03:22:41.446Z,5.44
2017-04-17T03:23:42.013Z,5.57
2017-04-17T03:24:42.577Z,5.48
2017-04-17T03:25:43.148Z,5.54
2017-04-17T03:26:43.766Z,5.50
2017-04-17T03:27:44.347Z,5.50
2017-04-17T03:28:44.916Z,5.54
2017-04-17T03:29:45.482Z,5.56
2017-04-17T03:30:46.050Z,5.54
2017-04-17T03:31:46.616Z,5.51
2017-04-17T03:32:47.184Z,5.47
2017-04-17T03:33:47.751Z,5.48
2017-04-17T03:34:48.317Z,5.51
2017-04-17T03:35:48.886Z,5.48
2017-04-17T03:36:49.453Z,5.50
2017-04-17T03:37:50.023Z,5.47
2017-04-17T03:38:50.588Z,5.50
2017-04-17T03:39:51.157Z,5.48
2017-04-17T03:40:51.723Z,5.46
2017-04-17T03:41:52.290Z,5.56
2017-04-17T03:42:52.857Z,5.53
2017-04-17T03:43:53.423Z,5.51
2017-04-17T03:44:53.990Z,5.43
2017-04-17T03:45:54.908Z,5.44
2017-04-17T03:46:55.475Z,5.28
2017-04-17T03:47:56.057Z,5.47
2017-04-17T03:48:56.625Z,5.47
2017-04-17T03:49:57.193Z,5.50
2017-04-17T03:50:57.761Z,5.48
2017-04-17T03:51:58.327Z,5.53
2017-04-17T03:52:58.894Z,5.47
2017-04-17T03:53:59.462Z,5.44
2017-04-17T03:55:00.028Z,5.44
2017-04-17T03:56:00.794Z,5.36
2017-04-17T03:57:01.361Z,5.39
2017-04-17T03:58:01.928Z,5.47
2017-04-17T03:59:02.499Z,5.38
2017-04-17T04:00:03.064Z,5.33
2017-04-17T04:01:03.646Z,5.35
2017-04-17T04:02:04.212Z,5.36
2017-04-17T04:03:04.781Z,5.35
2017-04-17T04:04:05.411Z,5.36
2017-04-17T04:05:05.914Z,5.47
2017-04-17T04:06:06.481Z,5.35
2017-04-17T04:07:07.047Z,5.46
2017-04-17T04:08:07.613Z,5.47
2017-04-17T04:09:08.180Z,5.46
2017-04-17T04:10:08.746Z,5.44
2017-04-17T04:11:09.527Z,5.43
2017-04-17T04:12:10.095Z,5.48
2017-04-17T04:13:10.662Z,5.44
2017-04-17T04:14:11.232Z,5.47
2017-04-17T04:15:11.798Z,5.44
2017-04-17T04:16:12.365Z,5.39
2017-04-17T04:17:12.933Z,5.47
2017-04-17T04:18:13.499Z,5.46
2017-04-17T04:19:14.066Z,5.35
2017-04-17T04:20:14.632Z,5.48
2017-04-17T04:21:15.199Z,5.47
2017-04-17T04:22:15.766Z,5.47
2017-04-17T04:23:16.336Z,5.48
2017-04-17T04:24:16.903Z,5.43
2017-04-17T04:25:17.482Z,5.44
2017-04-17T04:26:18.249Z,5.41
2017-04-17T04:27:18.818Z,5.41
2017-04-17T04:28:19.386Z,5.44
2017-04-17T04:29:19.951Z,5.36
2017-04-17T04:30:20.518Z,5.33
2017-04-17T04:31:21.087Z,5.33
2017-04-17T04:32:21.650Z,5.39
2017-04-17T04:33:22.217Z,5.33
2017-04-17T04:34:22.784Z,5.30
2017-04-17T04:35:23.352Z,5.33
2017-04-17T04:36:23.922Z,5.33
2017-04-17T04:37:24.490Z,5.29
2017-04-17T04:38:25.058Z,5.28
2017-04-17T04:39:25.626Z,5.33
2017-04-17T04:40:26.208Z,5.32
2017-04-17T04:41:26.979Z,5.21
2017-04-17T04:42:27.547Z,5.28
2017-04-17T04:43:28.117Z,5.29
2017-04-17T04:44:28.685Z,5.28
2017-04-17T04:45:29.253Z,5.30
2017-04-17T04:46:29.820Z,5.30
2017-04-17T04:47:30.387Z,5.23
2017-04-17T04:48:30.955Z,5.18
2017-04-17T04:49:31.525Z,5.26
2017-04-17T04:50:32.094Z,5.33
2017-04-17T04:51:32.662Z,5.32
2017-04-17T04:52:33.231Z,5.23
2017-04-17T04:53:33.798Z,5.28
2017-04-17T04:54:34.365Z,5.23
2017-04-17T04:55:34.933Z,5.23
2017-04-17T04:56:35.516Z,5.18
2017-04-17T04:57:36.100Z,5.32
2017-04-17T04:58:36.666Z,5.28
2017-04-17T04:59:37.234Z,5.26
2017-04-17T05:00:37.802Z,5.29
2017-04-17T05:01:38.369Z,5.26
2017-04-17T05:02:38.938Z,5.26
2017-04-17T05:03:39.509Z,5.23
2017-04-17T05:04:40.077Z,5.25
2017-04-17T05:05:40.643Z,5.26
2017-04-17T05:06:41.410Z,5.26
2017-04-17T05:07:41.979Z,5.23
2017-04-17T05:08:42.547Z,5.18
2017-04-17T05:09:43.116Z,5.26
2017-04-17T05:10:43.685Z,5.36
2017-04-17T05:11:44.251Z,5.29
2017-04-17T05:12:44.819Z,5.26
2017-04-17T05:13:45.388Z,5.28
2017-04-17T05:14:45.969Z,5.38
2017-04-17T05:15:46.538Z,5.43
2017-04-17T05:16:47.106Z,5.35
2017-04-17T05:17:47.675Z,5.29
2017-04-17T05:18:48.243Z,5.29
2017-04-17T05:19:48.814Z,5.28
2017-04-17T05:20:49.419Z,5.21
2017-04-17T05:21:50.188Z,5.33
2017-04-17T05:22:50.757Z,5.25
2017-04-17T05:23:51.326Z,5.33
2017-04-17T05:24:51.893Z,5.36
2017-04-17T05:25:52.461Z,5.39
2017-04-17T05:26:53.028Z,5.39
2017-04-17T05:27:53.596Z,5.43
2017-04-17T05:28:54.167Z,5.48
2017-04-17T05:29:54.735Z,5.51
2017-04-17T05:30:55.306Z,5.51
2017-04-17T05:31:55.875Z,5.48
2017-04-17T05:32:56.443Z,5.41
2017-04-17T05:33:57.014Z,5.44
2017-04-17T05:34:57.584Z,5.50
2017-04-17T05:35:58.154Z,5.47
2017-04-17T05:36:58.722Z,5.47
2017-04-17T05:37:59.291Z,5.44
2017-04-17T05:38:59.862Z,5.38
2017-04-17T05:40:00.612Z,5.26
2017-04-17T05:41:01.180Z,5.25
2017-04-17T05:42:01.751Z,5.35
2017-04-17T05:43:02.320Z,5.26
2017-04-17T05:44:02.891Z,5.28
2017-04-17T05:45:03.459Z,5.28
2017-04-17T05:46:04.044Z,5.35
2017-04-17T05:47:04.827Z,5.36
2017-04-17T05:48:05.410Z,5.32
2017-04-17T05:49:05.978Z,5.39
2017-04-17T05:50:06.548Z,5.38
2017-04-17T05:51:07.116Z,5.46
2017-04-17T05:52:07.685Z,5.43
2017-04-17T05:53:08.254Z,5.36
2017-04-17T05:54:08.839Z,5.44
2017-04-17T05:55:09.408Z,5.48
2017-04-17T05:56:09.994Z,5.48
2017-04-17T05:57:10.563Z,5.56
2017-04-17T05:58:11.131Z,5.51
2017-04-17T05:59:11.701Z,5.64
2017-04-17T06:00:12.271Z,5.53
2017-04-17T06:01:12.855Z,5.35
2017-04-17T06:02:13.423Z,5.48
2017-04-17T06:03:13.993Z,5.44
2017-04-17T06:04:14.562Z,5.48
2017-04-17T06:05:15.129Z,5.48
2017-04-17T06:06:15.700Z,5.54
2017-04-17T06:07:16.269Z,5.57
2017-04-17T06:08:16.838Z,5.68
2017-04-17T06:09:17.407Z,5.66
2017-04-17T06:10:17.979Z,5.54
2017-04-17T06:11:18.545Z,5.53
2017-04-17T06:12:19.116Z,5.66
2017-04-17T06:13:19.686Z,5.59
2017-04-17T06:14:20.255Z,5.54
2017-04-17T06:15:20.823Z,5.62
2017-04-17T06:16:21.394Z,5.61
2017-04-17T06:17:21.963Z,5.46
2017-04-17T06:18:22.536Z,5.66
2017-04-17T06:19:23.106Z,5.64
2017-04-17T06:20:23.675Z,5.72
2017-04-17T06:21:24.247Z,5.75
2017-04-17T06:22:24.818Z,5.72
2017-04-17T06:23:25.387Z,5.73
2017-04-17T06:24:25.959Z,5.73
2017-04-17T06:25:26.530Z,5.89
2017-04-17T06:26:27.099Z,5.83
2017-04-17T06:27:27.668Z,5.83
2017-04-17T06:28:28.238Z,5.75
2017-04-17T06:29:28.809Z,5.80
2017-04-17T06:30:29.378Z,5.80
2017-04-17T06:31:29.948Z,5.82
2017-04-17T06:32:30.518Z,5.83
2017-04-17T06:33:31.089Z,5.83
2017-04-17T06:34:31.660Z,5.86
2017-04-17T06:35:32.231Z,5.93
2017-04-17T06:36:32.800Z,5.94
2017-04-17T06:37:33.372Z,5.99
2017-04-17T06:38:33.941Z,6.02
2017-04-17T06:39:34.512Z,6.02
2017-04-17T06:40:35.081Z,6.05
2017-04-17T06:41:35.665Z,6.02
2017-04-17T06:42:36.235Z,6.07
2017-04-17T06:43:36.807Z,6.05
2017-04-17T06:44:37.377Z,5.91
2017-04-17T06:45:37.947Z,6.05
2017-04-17T06:46:38.687Z,6.14
2017-04-17T06:47:39.259Z,6.09
2017-04-17T06:48:39.842Z,5.93
2017-04-17T06:49:40.414Z,6.02
2017-04-17T06:50:40.984Z,6.12
2017-04-17T06:51:41.554Z,6.19
2017-04-17T06:52:42.126Z,6.20
2017-04-17T06:53:42.695Z,6.08
2017-04-17T06:54:43.269Z,5.98
2017-04-17T06:55:43.840Z,5.98
2017-04-17T06:56:44.411Z,6.11
2017-04-17T06:57:44.981Z,6.27
2017-04-17T06:58:45.551Z,6.38
2017-04-17T06:59:46.120Z,6.35
2017-04-17T07:00:46.689Z,6.39
2017-04-17T07:01:47.260Z,6.46
2017-04-17T07:02:47.832Z,6.51
2017-04-17T07:03:48.402Z,6.46
2017-04-17T07:04:49.062Z,6.59
2017-04-17T07:05:49.634Z,6.48
2017-04-17T07:06:50.203Z,6.36
2017-04-17T07:07:50.773Z,6.46
2017-04-17T07:08:51.344Z,6.30
2017-04-17T07:09:51.914Z,6.33
2017-04-17T07:10:52.499Z,6.44
2017-04-17T07:11:53.073Z,6.69
2017-04-17T07:12:53.640Z,6.88
2017-04-17T07:13:54.210Z,6.97
2017-04-17T07:14:54.783Z,7.10
2017-04-17T07:15:55.351Z,7.10
2017-04-17T07:16:55.923Z,6.92
2017-04-17T07:17:56.493Z,7.10
2017-04-17T07:18:57.063Z,6.97
2017-04-17T07:19:57.636Z,6.84
2017-04-17T07:20:58.219Z,6.95
2017-04-17T07:21:58.793Z,7.05
2017-04-17T07:22:59.362Z,6.78
2017-04-17T07:23:59.933Z,6.78
2017-04-17T07:25:00.504Z,6.67
2017-04-17T07:26:01.077Z,6.60
2017-04-17T07:27:01.647Z,6.70
2017-04-17T07:28:02.215Z,6.85
2017-04-17T07:29:02.786Z,6.70
2017-04-17T07:30:03.371Z,6.63
2017-04-17T07:31:03.943Z,6.60
2017-04-17T07:32:04.514Z,6.81
2017-04-17T07:33:05.149Z,6.99
2017-04-17T07:34:05.720Z,6.82
2017-04-17T07:35:06.290Z,7.02
2017-04-17T07:36:06.862Z,7.10
2017-04-17T07:37:07.433Z,7.06
2017-04-17T07:38:08.002Z,7.05
2017-04-17T07:39:08.571Z,7.11
2017-04-17T07:40:09.143Z,7.17
2017-04-17T07:41:09.715Z,7.06
2017-04-17T07:42:10.347Z,7.15
2017-04-17T07:43:10.919Z,7.32
2017-04-17T07:44:11.487Z,7.31
2017-04-17T07:45:12.059Z,7.38
2017-04-17T07:46:12.630Z,7.28
2017-04-17T07:47:13.202Z,7.43
2017-04-17T07:48:13.771Z,7.50
2017-04-17T07:49:14.343Z,7.42
2017-04-17T07:50:14.915Z,7.31
2017-04-17T07:51:15.486Z,7.39
2017-04-17T07:52:16.056Z,7.48
2017-04-17T07:53:16.629Z,7.48
2017-04-17T07:54:17.200Z,7.53
2017-04-17T07:55:17.771Z,7.28
2017-04-17T07:56:18.341Z,7.32
2017-04-17T07:57:18.911Z,7.17
2017-04-17T07:58:19.483Z,7.21
2017-04-17T07:59:20.053Z,7.29
2017-04-17T08:00:20.627Z,7.28
2017-04-17T08:01:21.199Z,7.43
2017-04-17T08:02:21.773Z,7.53
2017-04-17T08:03:22.355Z,7.66
2017-04-17T08:04:22.928Z,7.72
2017-04-17T08:05:23.498Z,7.51
2017-04-17T08:06:24.069Z,7.61
2017-04-17T08:07:24.642Z,7.50
2017-04-17T08:08:25.213Z,7.39
2017-04-17T08:09:25.798Z,7.56
2017-04-17T08:10:26.383Z,7.73
2017-04-17T08:11:26.956Z,7.91
2017-04-17T08:12:27.528Z,8.03
2017-04-17T08:13:28.100Z,8.33
2017-04-17T08:14:28.673Z,7.91
2017-04-17T08:15:29.244Z,7.98
2017-04-17T08:16:29.813Z,8.30
2017-04-17T08:17:30.385Z,8.38
2017-04-17T08:18:30.957Z,8.10
2017-04-17T08:19:31.528Z,8.23
2017-04-17T08:20:32.100Z,8.18
2017-04-17T08:21:32.670Z,8.31
2017-04-17T08:22:33.243Z,8.20
2017-04-17T08:23:33.813Z,8.06
2017-04-17T08:24:34.383Z,7.93
2017-04-17T08:25:34.954Z,7.94
2017-04-17T08:26:35.526Z,7.88
2017-04-17T08:27:36.100Z,8.12
2017-04-17T08:28:36.674Z,8.34
2017-04-17T08:29:37.241Z,8.10
2017-04-17T08:30:37.815Z,8.08
2017-04-17T08:31:38.387Z,7.85
2017-04-17T08:32:38.971Z,7.72
2017-04-17T08:33:39.552Z,7.69
2017-04-17T08:34:40.129Z,7.63
2017-04-17T08:35:40.714Z,7.70
2017-04-17T08:36:41.285Z,7.51
2017-04-17T08:37:41.857Z,7.66
2017-04-17T08:38:42.428Z,7.63
2017-04-17T08:39:42.999Z,7.42
2017-04-17T08:40:43.572Z,7.43
2017-04-17T08:41:44.142Z,7.45
2017-04-17T08:42:44.716Z,7.51
2017-04-17T08:43:45.486Z,7.43
2017-04-17T08:44:46.056Z,7.57
2017-04-17T08:45:46.627Z,7.32
2017-04-17T08:46:47.198Z,7.48
2017-04-17T08:47:47.771Z,7.48
2017-04-17T08:48:48.355Z,7.43
2017-04-17T08:49:48.925Z,7.48
2017-04-17T08:50:49.497Z,7.69
2017-04-17T08:51:50.067Z,7.72
2017-04-17T08:52:50.638Z,8.01
2017-04-17T08:53:51.412Z,8.37
2017-04-17T08:54:51.995Z,8.52
2017-04-17T08:55:52.567Z,8.45
2017-04-17T08:56:53.139Z,8.48
2017-04-17T08:57:53.840Z,8.84
2017-04-17T08:58:54.412Z,8.76
2017-04-17T08:59:54.983Z,8.73
2017-04-17T09:00:55.555Z,8.94
2017-04-17T09:01:56.129Z,9.23
2017-04-17T09:02:56.699Z,9.08
2017-04-17T09:03:57.269Z,9.13
2017-04-17T09:04:57.844Z,8.88
2017-04-17T09:05:58.416Z,8.95
2017-04-17T09:06:58.988Z,9.25
2017-04-17T09:07:59.561Z,9.43
2017-04-17T09:09:00.133Z,9.37
2017-04-17T09:10:00.706Z,9.50
2017-04-17T09:11:01.280Z,9.94
2017-04-17T09:12:01.854Z,10.22
2017-04-17T09:13:02.430Z,10.37
2017-04-17T09:14:03.002Z,10.40
2017-04-17T09:15:03.578Z,10.20
2017-04-17T09:16:04.151Z,9.89
2017-04-17T09:17:04.780Z,9.56
2017-04-17T09:18:05.352Z,9.13
2017-04-17T09:19:05.924Z,9.21
2017-04-17T09:20:06.497Z,9.56
2017-04-17T09:21:07.069Z,9.47
2017-04-17T09:22:07.643Z,9.23
2017-04-17T09:23:08.216Z,9.47
2017-04-17T09:24:08.790Z,9.65
2017-04-17T09:25:09.365Z,9.66
2017-04-17T09:26:09.938Z,9.65
2017-04-17T09:27:10.511Z,9.58
2017-04-17T09:28:11.085Z,9.76
2017-04-17T09:29:11.657Z,9.64
2017-04-17T09:30:12.227Z,9.37
2017-04-17T09:31:12.799Z,8.95
2017-04-17T09:32:13.372Z,8.60
2017-04-17T09:33:13.957Z,8.82
2017-04-17T09:34:14.532Z,8.56
2017-04-17T09:35:15.103Z,8.51
2017-04-17T09:36:15.677Z,8.42
2017-04-17T09:37:16.262Z,8.60
2017-04-17T09:38:16.834Z,8.63
2017-04-17T09:39:17.405Z,8.58
2017-04-17T09:40:17.981Z,8.73
2017-04-17T09:41:18.554Z,9.03
2017-04-17T09:42:19.125Z,8.61
2017-04-17T09:43:19.697Z,8.64
2017-04-17T09:44:20.270Z,8.94
2017-04-17T09:45:20.847Z,9.39
2017-04-17T09:46:21.417Z,9.79
2017-04-17T09:47:21.989Z,9.76
2017-04-17T09:48:22.563Z,9.51
2017-04-17T09:49:23.140Z,9.22
2017-04-17T09:50:23.708Z,9.40
2017-04-17T09:51:24.281Z,9.50
2017-04-17T09:52:24.854Z,9.26
2017-04-17T09:53:25.427Z,9.58
2017-04-17T09:54:25.999Z,9.25
2017-04-17T09:55:26.572Z,9.25
2017-04-17T09:56:27.146Z,9.10
2017-04-17T09:57:27.719Z,9.56
2017-04-17T09:58:28.292Z,9.84
2017-04-17T09:59:28.867Z,9.77
2017-04-17T10:00:29.440Z,9.98
2017-04-17T10:01:30.013Z,9.23
2017-04-17T10:02:30.586Z,9.46
2017-04-17T10:03:31.160Z,9.58
2017-04-17T10:04:31.742Z,9.98
2017-04-17T10:05:32.324Z,10.15
2017-04-17T10:06:32.897Z,10.13
2017-04-17T10:07:33.470Z,10.16
2017-04-17T10:08:34.047Z,10.22
2017-04-17T10:09:34.636Z,10.26
2017-04-17T10:10:35.210Z,10.12
2017-04-17T10:11:35.783Z,10.22
2017-04-17T10:12:36.361Z,10.54
2017-04-17T10:13:36.939Z,10.22
2017-04-17T10:14:37.509Z,10.38
2017-04-17T10:15:38.083Z,9.99
2017-04-17T10:16:38.671Z,10.15
2017-04-17T10:17:39.247Z,10.16
2017-04-17T10:18:39.835Z,10.38
2017-04-17T10:19:40.410Z,10.31
2017-04-17T10:20:40.984Z,10.40
2017-04-17T10:21:41.558Z,10.01
2017-04-17T10:22:42.130Z,9.84
2017-04-17T10:23:42.704Z,9.69
2017-04-17T10:24:43.475Z,9.95
2017-04-17T10:25:44.047Z,9.77
2017-04-17T10:26:44.621Z,10.20
2017-04-17T10:27:45.196Z,10.40
2017-04-17T10:28:45.770Z,10.35
2017-04-17T10:29:46.343Z,10.15
2017-04-17T10:30:46.921Z,10.10
2017-04-17T10:31:47.513Z,10.07
2017-04-17T10:32:48.083Z,10.67
2017-04-17T10:33:48.658Z,10.67
2017-04-17T10:34:49.235Z,10.57
2017-04-17T10:35:49.810Z,10.61
2017-04-17T10:36:50.385Z,10.60
2017-04-17T10:37:50.961Z,10.84
2017-04-17T10:38:51.536Z,11.00
2017-04-17T10:39:52.311Z,10.87
2017-04-17T10:40:52.885Z,11.04
2017-04-17T10:41:53.461Z,10.92
2017-04-17T10:42:54.037Z,10.87
2017-04-17T10:43:54.611Z,10.31
2017-04-17T10:44:55.187Z,10.54
2017-04-17T10:45:55.763Z,10.60
2017-04-17T10:46:56.336Z,10.78
2017-04-17T10:47:56.912Z,10.68
2017-04-17T10:48:57.487Z,10.53
2017-04-17T10:49:58.261Z,10.23
2017-04-17T10:50:58.848Z,10.25
2017-04-17T10:51:59.435Z,10.38
2017-04-17T10:53:00.013Z,10.31
2017-04-17T10:54:00.586Z,10.37
2017-04-17T10:55:01.160Z,10.33
2017-04-17T10:56:01.734Z,10.04
2017-04-17T10:57:02.308Z,9.86
2017-04-17T10:58:02.895Z,9.84
2017-04-17T10:59:03.471Z,9.66
2017-04-17T11:00:04.044Z,9.76
2017-04-17T11:01:04.616Z,9.55
2017-04-17T11:02:05.190Z,9.37
2017-04-17T11:03:05.766Z,9.79
2017-04-17T11:04:06.339Z,10.16
2017-04-17T11:05:06.914Z,10.22
2017-04-17T11:06:07.489Z,10.05
2017-04-17T11:07:08.064Z,10.15
2017-04-17T11:08:08.638Z,10.07
2017-04-17T11:09:09.213Z,10.57
2017-04-17T11:10:09.992Z,10.54
2017-04-17T11:11:10.578Z,10.41
2017-04-17T11:12:11.155Z,10.79
2017-04-17T11:13:11.730Z,10.68
2017-04-17T11:14:12.312Z,10.59
2017-04-17T11:15:12.882Z,10.75
2017-04-17T11:16:13.458Z,10.61
2017-04-17T11:17:14.041Z,10.99
2017-04-17T11:18:14.616Z,10.81
2017-04-17T11:19:15.197Z,10.37
2017-04-17T11:20:15.771Z,10.38
2017-04-17T11:21:16.347Z,10.69
2017-04-17T11:22:16.922Z,10.40
2017-04-17T11:23:17.499Z,10.15
2017-04-17T11:24:18.076Z,10.63
2017-04-17T11:25:18.650Z,10.92
2017-04-17T11:26:19.225Z,11.15
2017-04-17T11:27:19.802Z,11.40
2017-04-17T11:28:20.378Z,11.54
2017-04-17T11:29:20.953Z,11.50
2017-04-17T11:30:21.534Z,10.86
2017-04-17T11:31:22.108Z,10.54
2017-04-17T11:32:22.681Z,10.90
2017-04-17T11:33:23.257Z,10.68
2017-04-17T11:34:24.015Z,10.75
2017-04-17T11:35:24.589Z,11.02
2017-04-17T11:36:25.166Z,11.11
2017-04-17T11:37:25.742Z,11.25
2017-04-17T11:38:26.316Z,11.45
2017-04-17T11:39:26.892Z,11.33
2017-04-17T11:40:27.465Z,11.18
2017-04-17T11:41:28.040Z,11.43
2017-04-17T11:42:28.615Z,11.11
2017-04-17T11:43:29.189Z,11.23
2017-04-17T11:44:29.764Z,10.94
2017-04-17T11:45:30.343Z,10.94
2017-04-17T11:46:30.914Z,10.67
2017-04-17T11:47:31.488Z,10.01
2017-04-17T11:48:32.064Z,9.89
2017-04-17T11:49:32.635Z,9.47
2017-04-17T11:50:33.210Z,9.87
2017-04-17T11:51:33.781Z,9.87
2017-04-17T11:52:34.355Z,9.91
2017-04-17T11:53:34.932Z,10.02
2017-04-17T11:54:35.512Z,9.86
2017-04-17T11:55:36.092Z,9.66
2017-04-17T11:56:36.690Z,9.76
2017-04-17T11:57:37.284Z,10.01
2017-04-17T11:58:37.864Z,10.20
2017-04-17T11:59:38.440Z,10.37
2017-04-17T12:00:39.217Z,10.38
2017-04-17T12:01:39.852Z,10.54
2017-04-17T12:02:40.444Z,10.72
2017-04-17T12:03:41.018Z,10.96
2017-04-17T12:04:41.594Z,10.75
2017-04-17T12:05:42.167Z,10.30
2017-04-17T12:06:42.744Z,10.22
2017-04-17T12:07:43.319Z,10.57
2017-04-17T12:08:43.894Z,10.41
2017-04-17T12:09:44.482Z,10.94
2017-04-17T12:10:45.058Z,11.26
2017-04-17T12:11:45.633Z,10.99
2017-04-17T12:12:46.209Z,10.67
2017-04-17T12:13:46.785Z,10.48
2017-04-17T12:14:47.361Z,10.30
2017-04-17T12:15:47.938Z,10.84
2017-04-17T12:16:48.512Z,10.90
2017-04-17T12:17:49.102Z,11.29
2017-04-17T12:18:49.677Z,11.17
2017-04-17T12:19:50.255Z,11.72
2017-04-17T12:20:50.829Z,11.55
2017-04-17T12:21:51.404Z,11.41
2017-04-17T12:22:51.980Z,10.99
2017-04-17T12:23:52.556Z,10.97
2017-04-17T12:24:53.146Z,11.25
2017-04-17T12:25:53.722Z,11.02
2017-04-17T12:26:54.299Z,11.43
2017-04-17T12:27:54.888Z,11.65
2017-04-17T12:28:55.463Z,11.30
2017-04-17T12:29:56.038Z,11.25
2017-04-17T12:30:56.815Z,11.29
2017-04-17T12:31:57.390Z,11.66
2017-04-17T12:32:57.967Z,11.62
2017-04-17T12:33:58.543Z,11.02
2017-04-17T12:34:59.135Z,11.12
2017-04-17T12:35:59.710Z,11.29
2017-04-17T12:37:00.287Z,11.17
2017-04-17T12:38:00.862Z,11.15
2017-04-17T12:39:01.437Z,11.05
2017-04-17T12:40:02.007Z,10.99
2017-04-17T12:41:02.582Z,11.60
2017-04-17T12:42:03.173Z,11.59
2017-04-17T12:43:03.748Z,11.69
2017-04-17T12:44:04.323Z,11.66
2017-04-17T12:45:04.899Z,11.43
2017-04-17T12:46:05.475Z,11.14
2017-04-17T12:47:06.048Z,11.26
2017-04-17T12:48:06.622Z,11.14
2017-04-17T12:49:07.198Z,11.08
2017-04-17T12:50:07.786Z,11.08
2017-04-17T12:51:08.360Z,10.69
2017-04-17T12:52:08.938Z,11.14
2017-04-17T12:53:09.524Z,11.10
2017-04-17T12:54:10.101Z,11.11
2017-04-17T12:55:10.676Z,11.14
2017-04-17T12:56:11.251Z,10.67
2017-04-17T12:57:11.828Z,10.35
2017-04-17T12:58:12.403Z,10.33
2017-04-17T12:59:12.978Z,10.23
2017-04-17T13:00:13.554Z,9.76
2017-04-17T13:01:14.127Z,9.76
2017-04-17T13:02:14.703Z,10.31
2017-04-17T13:03:15.277Z,9.69
2017-04-17T13:04:15.942Z,9.80
2017-04-17T13:05:16.520Z,9.79
2017-04-17T13:06:17.088Z,9.79
2017-04-17T13:07:17.663Z,9.92
2017-04-17T13:08:18.241Z,10.12
2017-04-17T13:09:18.813Z,9.94
2017-04-17T13:10:19.388Z,9.94
2017-04-17T13:11:20.164Z,10.34
2017-04-17T13:12:20.742Z,10.22
2017-04-17T13:13:21.318Z,10.56
2017-04-17T13:14:21.894Z,10.46
2017-04-17T13:15:22.468Z,10.46
2017-04-17T13:16:23.043Z,10.37
2017-04-17T13:17:23.620Z,10.93
2017-04-17T13:18:24.195Z,10.63
2017-04-17T13:19:24.768Z,10.86
2017-04-17T13:20:25.357Z,10.76